createdAt,value
2023-01-29T00:01:46.555Z,2.40
2023-01-29T00:04:14.736Z,2.70
2023-01-29T00:06:42.611Z,2.73
2023-01-29T00:09:10.506Z,2.87
2023-01-29T00:11:38.574Z,2.43
2023-01-29T00:14:06.584Z,2.70
2023-01-29T00:16:35.869Z,2.50
2023-01-29T00:19:04.293Z,2.67
2023-01-29T00:21:32.352Z,2.37
2023-01-29T00:24:00.932Z,2.40
2023-01-29T00:26:29.387Z,2.70
2023-01-29T00:29:00.470Z,2.47
2023-01-29T00:31:28.696Z,2.20
2023-01-29T00:33:58.437Z,2.30
2023-01-29T00:36:27.525Z,2.80
2023-01-29T00:39:00.635Z,2.50
2023-01-29T00:41:47.408Z,2.50
2023-01-29T00:44:32.860Z,2.53
2023-01-29T00:47:01.187Z,1.87
2023-01-29T00:49:31.289Z,2.13
2023-01-29T00:52:16.656Z,2.83
2023-01-29T00:54:44.513Z,2.40
2023-01-29T00:57:12.367Z,2.30
2023-01-29T00:59:40.210Z,2.87
2023-01-29T01:02:25.860Z,2.60
2023-01-29T01:04:55.252Z,2.50
2023-01-29T01:07:23.255Z,2.53
2023-01-29T01:10:23.266Z,2.40
2023-01-29T01:12:54.882Z,2.60
2023-01-29T01:15:23.816Z,2.63
2023-01-29T01:17:54.301Z,2.97
2023-01-29T01:20:23.843Z,2.70
2023-01-29T01:22:51.707Z,2.03
2023-01-29T01:25:19.793Z,2.03
2023-01-29T01:27:47.676Z,2.33
2023-01-29T01:30:17.669Z,2.73
2023-01-29T01:32:46.061Z,2.33
2023-01-29T01:35:14.794Z,2.07
2023-01-29T01:37:44.111Z,2.50
2023-01-29T01:40:18.383Z,2.20
2023-01-29T01:42:49.980Z,2.40
2023-01-29T01:45:22.491Z,2.63
2023-01-29T01:47:53.369Z,2.20
2023-01-29T01:50:25.172Z,2.03
2023-01-29T01:52:59.423Z,2.30
2023-01-29T01:55:31.172Z,2.57
2023-01-29T01:58:04.025Z,2.30
2023-01-29T02:00:31.888Z,2.20
2023-01-29T02:03:18.407Z,2.40
2023-01-29T02:06:04.057Z,2.07
2023-01-29T02:08:58.159Z,2.40
2023-01-29T02:11:26.261Z,2.33
2023-01-29T02:13:54.545Z,2.47
2023-01-29T02:16:23.890Z,2.30
2023-01-29T02:18:52.379Z,1.90
2023-01-29T02:21:53.677Z,2.63
2023-01-29T02:24:56.633Z,2.20
2023-01-29T02:27:34.763Z,2.03
2023-01-29T02:30:10.171Z,2.27
2023-01-29T02:32:54.443Z,1.80
2023-01-29T02:35:31.849Z,2.33
2023-01-29T02:38:18.767Z,2.47
2023-01-29T02:40:51.489Z,2.17
2023-01-29T02:43:29.650Z,2.23
2023-01-29T02:46:04.864Z,2.10
2023-01-29T02:48:42.369Z,2.17
2023-01-29T02:51:19.120Z,2.00
2023-01-29T02:53:54.983Z,2.13
2023-01-29T02:56:28.941Z,2.17
2023-01-29T02:59:03.011Z,1.73
2023-01-29T03:01:36.874Z,2.07
2023-01-29T03:04:09.322Z,1.90
2023-01-29T03:06:42.286Z,1.93
2023-01-29T03:09:14.954Z,1.80
2023-01-29T03:11:46.859Z,1.50
2023-01-29T03:14:18.025Z,2.10
2023-01-29T03:16:51.170Z,1.97
2023-01-29T03:19:21.865Z,1.93
2023-01-29T03:21:59.140Z,2.00
2023-01-29T03:24:52.763Z,1.80
2023-01-29T03:27:43.117Z,2.17
2023-01-29T03:30:31.445Z,2.10
2023-01-29T03:33:04.732Z,2.10
2023-01-29T03:35:37.629Z,2.03
2023-01-29T03:38:09.926Z,1.90
2023-01-29T03:40:44.864Z,1.50
2023-01-29T03:43:21.214Z,2.20
2023-01-29T03:46:00.956Z,1.83
2023-01-29T03:48:36.919Z,2.07
2023-01-29T03:51:17.780Z,2.00
2023-01-29T03:53:50.567Z,1.80
2023-01-29T03:56:28.449Z,1.63
2023-01-29T03:59:01.073Z,1.67
2023-01-29T04:01:35.277Z,2.30
2023-01-29T04:04:12.726Z,2.30
2023-01-29T04:06:44.629Z,2.10
2023-01-29T04:09:16.209Z,1.67
2023-01-29T04:11:48.818Z,2.17
2023-01-29T04:14:17.722Z,2.07
2023-01-29T04:16:52.135Z,2.30
2023-01-29T04:19:21.510Z,2.03
2023-01-29T04:21:51.706Z,1.87
2023-01-29T04:24:19.740Z,2.30
2023-01-29T04:27:04.173Z,2.63
2023-01-29T04:29:46.660Z,2.23
2023-01-29T04:32:20.910Z,1.77
2023-01-29T04:35:01.459Z,1.80
2023-01-29T04:37:39.504Z,1.90
2023-01-29T04:40:20.994Z,1.83
2023-01-29T04:42:53.786Z,1.73
2023-01-29T04:45:28.931Z,2.20
2023-01-29T04:48:05.213Z,1.90
2023-01-29T04:50:39.245Z,1.60
2023-01-29T04:53:14.388Z,1.90
2023-01-29T04:55:46.318Z,1.50
2023-01-29T04:58:20.948Z,1.80
2023-01-29T05:00:54.136Z,1.80
2023-01-29T05:03:25.570Z,1.90
2023-01-29T05:05:57.077Z,2.07
2023-01-29T05:08:27.278Z,2.30
2023-01-29T05:10:58.137Z,1.80
2023-01-29T05:13:27.785Z,1.70
2023-01-29T05:16:00.450Z,1.70
2023-01-29T05:18:29.535Z,1.97
2023-01-29T05:21:04.146Z,1.97
2023-01-29T05:23:32.151Z,1.53
2023-01-29T05:26:00.190Z,2.00
2023-01-29T05:28:27.079Z,1.63
2023-01-29T05:30:56.531Z,2.40
2023-01-29T05:33:26.898Z,2.03
2023-01-29T05:35:55.706Z,1.50
2023-01-29T05:38:25.186Z,2.10
2023-01-29T05:40:54.022Z,1.57
2023-01-29T05:43:23.902Z,1.90
2023-01-29T05:45:55.589Z,1.60
2023-01-29T05:48:23.585Z,1.80
2023-01-29T05:50:51.968Z,1.80
2023-01-29T05:53:20.007Z,1.80
2023-01-29T05:55:49.564Z,2.13
2023-01-29T05:58:19.529Z,1.70
2023-01-29T06:00:47.441Z,2.00
2023-01-29T06:03:15.510Z,1.97
2023-01-29T06:05:43.428Z,1.53
2023-01-29T06:08:11.284Z,1.93
2023-01-29T06:10:39.132Z,1.60
2023-01-29T06:13:08.358Z,1.37
2023-01-29T06:15:36.217Z,1.90
2023-01-29T06:18:04.089Z,1.70
2023-01-29T06:20:31.936Z,1.70
2023-01-29T06:22:59.866Z,2.30
2023-01-29T06:25:27.726Z,1.83
2023-01-29T06:27:58.407Z,1.60
2023-01-29T06:30:29.177Z,1.80
2023-01-29T06:32:58.739Z,1.90
2023-01-29T06:35:26.916Z,2.13
2023-01-29T06:37:55.001Z,1.93
2023-01-29T06:40:23.047Z,2.13
2023-01-29T06:42:50.916Z,1.70
2023-01-29T06:45:18.820Z,2.00
2023-01-29T06:47:48.061Z,1.70
2023-01-29T06:50:16.263Z,1.67
2023-01-29T06:52:44.369Z,1.77
2023-01-29T06:55:12.300Z,1.80
2023-01-29T06:57:40.156Z,1.90
2023-01-29T07:00:10.245Z,1.80
2023-01-29T07:02:38.100Z,2.33
2023-01-29T07:05:07.979Z,1.90
2023-01-29T07:07:36.802Z,1.30
2023-01-29T07:10:05.210Z,1.30
2023-01-29T07:12:33.053Z,1.57
2023-01-29T07:15:00.899Z,1.63
2023-01-29T07:17:28.744Z,1.57
2023-01-29T07:19:56.662Z,1.73
2023-01-29T07:22:25.886Z,1.77
2023-01-29T07:24:53.746Z,1.70
2023-01-29T07:27:21.583Z,1.83
2023-01-29T07:29:49.454Z,1.80
2023-01-29T07:32:17.399Z,1.70
2023-01-29T07:34:45.268Z,1.80
2023-01-29T07:37:13.126Z,1.57
2023-01-29T07:39:42.368Z,2.00
2023-01-29T07:42:10.233Z,1.87
2023-01-29T07:44:38.080Z,1.50
2023-01-29T07:47:06.106Z,1.80
2023-01-29T07:49:33.928Z,1.70
2023-01-29T07:52:01.808Z,1.40
2023-01-29T07:54:29.658Z,2.30
2023-01-29T07:56:58.876Z,1.90
2023-01-29T07:59:26.756Z,1.87
2023-01-29T08:01:54.648Z,1.47
2023-01-29T08:04:24.270Z,1.90
2023-01-29T08:06:52.106Z,1.80
2023-01-29T08:09:19.968Z,1.80
2023-01-29T08:11:47.848Z,1.60
2023-01-29T08:14:17.978Z,1.70
2023-01-29T08:16:45.925Z,1.80
2023-01-29T08:19:13.866Z,1.37
2023-01-29T08:21:41.786Z,1.63
2023-01-29T08:24:09.725Z,1.63
2023-01-29T08:26:37.619Z,1.80
2023-01-29T08:29:05.728Z,1.67
2023-01-29T08:31:35.142Z,2.07
2023-01-29T08:34:03.069Z,1.70
2023-01-29T08:36:31.011Z,1.87
2023-01-29T08:38:59.119Z,1.80
2023-01-29T08:41:27.033Z,1.70
2023-01-29T08:43:54.932Z,2.27
2023-01-29T08:46:22.815Z,1.70
2023-01-29T08:48:52.078Z,1.77
2023-01-29T08:51:19.979Z,1.90
2023-01-29T08:53:48.056Z,1.77
2023-01-29T08:56:16.385Z,2.07
2023-01-29T08:58:44.569Z,1.80
2023-01-29T09:01:14.068Z,1.70
2023-01-29T09:03:43.735Z,1.73
2023-01-29T09:06:14.983Z,1.80
2023-01-29T09:08:43.233Z,1.90
2023-01-29T09:11:11.209Z,2.00
2023-01-29T09:13:39.114Z,2.10
2023-01-29T09:16:07.599Z,1.80
2023-01-29T09:18:35.489Z,1.53
2023-01-29T09:21:03.633Z,1.70
2023-01-29T09:23:33.336Z,1.83
2023-01-29T09:26:01.624Z,2.80
2023-01-29T09:28:29.471Z,2.00
2023-01-29T09:30:57.954Z,2.03
2023-01-29T09:33:26.181Z,1.97
2023-01-29T09:35:54.108Z,1.60
2023-01-29T09:38:22.100Z,2.30
2023-01-29T09:40:59.310Z,1.70
2023-01-29T09:43:40.685Z,1.90
2023-01-29T09:46:16.854Z,1.57
2023-01-29T09:48:46.764Z,1.87
2023-01-29T09:51:22.857Z,1.90
2023-01-29T09:53:59.406Z,2.20
2023-01-29T09:56:29.667Z,2.13
2023-01-29T09:59:01.555Z,1.80
2023-01-29T10:01:37.337Z,1.70
2023-01-29T10:04:28.006Z,1.67
2023-01-29T10:07:12.276Z,1.83
2023-01-29T10:10:06.551Z,1.37
2023-01-29T10:12:54.555Z,2.00
2023-01-29T10:15:34.331Z,1.93
2023-01-29T10:18:18.753Z,1.77
2023-01-29T10:20:58.323Z,2.00
2023-01-29T10:23:29.565Z,1.83
2023-01-29T10:25:58.142Z,1.50
2023-01-29T10:28:32.425Z,1.83
2023-01-29T10:31:05.527Z,1.53
2023-01-29T10:33:49.646Z,2.07
2023-01-29T10:36:35.462Z,1.50
2023-01-29T10:39:03.334Z,1.70
2023-01-29T10:42:03.694Z,2.30
2023-01-29T10:44:44.311Z,2.23
2023-01-29T10:47:32.220Z,1.70
2023-01-29T10:50:28.262Z,1.80
2023-01-29T10:53:24.464Z,1.83
2023-01-29T10:56:10.743Z,2.20
2023-01-29T10:58:51.156Z,1.77
2023-01-29T11:01:20.427Z,1.97
2023-01-29T11:03:58.734Z,2.00
2023-01-29T11:06:30.788Z,2.00
2023-01-29T11:09:04.959Z,1.97
2023-01-29T11:11:37.293Z,2.30
2023-01-29T11:14:10.057Z,1.73
2023-01-29T11:16:45.597Z,1.70
2023-01-29T11:19:13.867Z,1.70
2023-01-29T11:21:57.698Z,2.13
2023-01-29T11:24:26.111Z,1.50
2023-01-29T11:26:57.190Z,2.03
2023-01-29T11:29:35.688Z,2.07
2023-01-29T11:32:07.538Z,1.63
2023-01-29T11:34:35.799Z,1.57
2023-01-29T11:37:05.943Z,1.67
2023-01-29T11:39:34.242Z,2.13
2023-01-29T11:42:04.057Z,1.70
2023-01-29T11:44:34.105Z,2.10
2023-01-29T11:47:13.889Z,2.00
2023-01-29T11:49:46.834Z,2.37
2023-01-29T11:52:16.426Z,2.10
2023-01-29T11:54:50.004Z,1.60
2023-01-29T11:57:27.299Z,2.10
2023-01-29T11:59:56.657Z,2.17
2023-01-29T12:02:35.460Z,2.00
2023-01-29T12:05:07.583Z,2.07
2023-01-29T12:07:35.957Z,1.80
2023-01-29T12:10:04.428Z,2.27
2023-01-29T12:12:36.507Z,1.83
2023-01-29T12:15:17.998Z,1.83
2023-01-29T12:17:54.751Z,2.10
2023-01-29T12:20:30.094Z,1.97
2023-01-29T12:23:04.407Z,2.47
2023-01-29T12:25:42.287Z,1.60
2023-01-29T12:28:23.917Z,1.80
2023-01-29T12:31:03.417Z,1.90
2023-01-29T12:33:42.146Z,1.80
2023-01-29T12:36:15.329Z,2.00
2023-01-29T12:38:45.689Z,1.97
2023-01-29T12:41:26.545Z,1.60
2023-01-29T12:43:58.675Z,1.60
2023-01-29T12:46:29.965Z,2.07
2023-01-29T12:49:03.409Z,2.10
2023-01-29T12:51:37.108Z,2.10
2023-01-29T12:54:08.621Z,2.37
2023-01-29T12:56:41.082Z,2.20
2023-01-29T12:59:17.834Z,2.17
2023-01-29T13:01:51.224Z,1.80
2023-01-29T13:04:31.950Z,2.30
2023-01-29T13:07:11.207Z,2.17
2023-01-29T13:09:44.405Z,1.53
2023-01-29T13:12:15.615Z,1.83
2023-01-29T13:14:47.841Z,1.90
2023-01-29T13:17:20.776Z,1.97
2023-01-29T13:19:53.455Z,1.87
2023-01-29T13:22:25.423Z,1.50
2023-01-29T13:25:04.192Z,1.70
2023-01-29T13:27:35.364Z,1.43
2023-01-29T13:30:04.182Z,1.80
2023-01-29T13:32:35.007Z,2.10
2023-01-29T13:35:07.748Z,1.90
2023-01-29T13:37:38.209Z,1.73
2023-01-29T13:40:08.164Z,1.90
2023-01-29T13:42:43.101Z,1.80
2023-01-29T13:45:21.256Z,1.70
2023-01-29T13:47:51.002Z,1.67
2023-01-29T13:50:31.675Z,1.70
2023-01-29T13:53:02.124Z,1.57
2023-01-29T13:55:33.257Z,2.30
2023-01-29T13:58:01.603Z,1.97
2023-01-29T14:00:57.191Z,1.67
2023-01-29T14:04:03.387Z,1.80
2023-01-29T14:06:47.704Z,1.87
2023-01-29T14:09:55.695Z,2.00
2023-01-29T14:12:37.393Z,1.80
2023-01-29T14:15:27.679Z,1.90
2023-01-29T14:18:15.104Z,2.33
2023-01-29T14:21:02.290Z,1.53
2023-01-29T14:23:40.282Z,1.57
2023-01-29T14:26:27.151Z,1.53
2023-01-29T14:28:59.895Z,2.10
2023-01-29T14:31:40.079Z,1.67
2023-01-29T14:34:15.691Z,1.87
2023-01-29T14:36:45.603Z,2.20
2023-01-29T14:39:30.696Z,1.87
2023-01-29T14:41:59.311Z,2.23
2023-01-29T14:44:55.187Z,2.00
2023-01-29T14:48:01.695Z,1.53
2023-01-29T14:50:51.870Z,1.73
2023-01-29T14:53:29.159Z,1.77
2023-01-29T14:56:02.092Z,1.53
2023-01-29T14:58:40.190Z,2.00
2023-01-29T15:01:18.929Z,2.00
2023-01-29T15:03:49.800Z,1.60
2023-01-29T15:06:22.583Z,1.63
2023-01-29T15:08:57.939Z,1.60
2023-01-29T15:11:50.825Z,1.80
2023-01-29T15:14:25.377Z,2.23
2023-01-29T15:17:02.906Z,1.50
2023-01-29T15:19:36.052Z,2.00
2023-01-29T15:22:09.341Z,1.97
2023-01-29T15:24:37.771Z,1.60
2023-01-29T15:27:08.126Z,2.00
2023-01-29T15:29:36.679Z,1.73
2023-01-29T15:32:04.837Z,2.53
2023-01-29T15:34:32.913Z,2.47
2023-01-29T15:37:01.105Z,1.60
2023-01-29T15:39:30.799Z,1.77
2023-01-29T15:42:15.621Z,1.80
2023-01-29T15:44:47.327Z,1.80
2023-01-29T15:47:16.597Z,2.50
2023-01-29T15:49:47.274Z,2.30
2023-01-29T15:52:20.627Z,1.90
2023-01-29T15:54:48.651Z,2.00
2023-01-29T15:57:24.062Z,1.73
2023-01-29T15:59:54.886Z,1.60
2023-01-29T16:02:35.994Z,2.00
2023-01-29T16:05:05.688Z,1.87
2023-01-29T16:07:34.157Z,2.00
2023-01-29T16:10:02.555Z,2.13
2023-01-29T16:12:33.439Z,1.67
2023-01-29T16:15:03.476Z,1.80
2023-01-29T16:17:35.309Z,1.90
2023-01-29T16:20:05.324Z,2.03
2023-01-29T16:22:35.907Z,1.77
2023-01-29T16:25:05.621Z,2.30
2023-01-29T16:27:35.709Z,1.73
2023-01-29T16:30:05.461Z,2.13
2023-01-29T16:32:33.414Z,1.90
2023-01-29T16:35:01.822Z,2.20
2023-01-29T16:37:32.048Z,2.00
2023-01-29T16:40:00.261Z,2.23
2023-01-29T16:42:30.242Z,2.07
2023-01-29T16:45:02.085Z,2.30
2023-01-29T16:47:33.617Z,2.07
2023-01-29T16:50:03.164Z,2.00
2023-01-29T16:52:33.152Z,1.83
2023-01-29T16:55:14.995Z,2.40
2023-01-29T16:57:45.186Z,2.40
2023-01-29T17:00:23.021Z,2.23
2023-01-29T17:02:54.015Z,2.00
2023-01-29T17:05:27.124Z,2.20
2023-01-29T17:07:58.568Z,2.23
2023-01-29T17:10:27.993Z,2.10
2023-01-29T17:12:59.461Z,2.20
2023-01-29T17:15:35.911Z,2.00
2023-01-29T17:18:04.304Z,2.03
2023-01-29T17:20:32.880Z,2.20
2023-01-29T17:23:00.731Z,1.77
2023-01-29T17:25:29.968Z,1.93
2023-01-29T17:28:00.961Z,2.50
2023-01-29T17:30:33.743Z,1.70
2023-01-29T17:33:03.549Z,1.80
2023-01-29T17:35:31.398Z,2.50
2023-01-29T17:37:59.320Z,1.87
2023-01-29T17:40:34.280Z,2.20
2023-01-29T17:43:02.133Z,2.27
2023-01-29T17:45:30.032Z,2.17
2023-01-29T17:47:58.060Z,2.10
2023-01-29T17:50:28.644Z,2.27
2023-01-29T17:52:56.466Z,2.40
2023-01-29T17:55:24.443Z,2.03
2023-01-29T17:57:52.559Z,2.87
2023-01-29T18:00:22.927Z,1.90
2023-01-29T18:02:51.664Z,2.17
2023-01-29T18:05:20.575Z,2.30
2023-01-29T18:07:51.698Z,2.73
2023-01-29T18:10:22.963Z,1.97
2023-01-29T18:12:50.879Z,2.47
2023-01-29T18:15:19.410Z,2.53
2023-01-29T18:17:48.437Z,2.67
2023-01-29T18:20:20.557Z,2.70
2023-01-29T18:22:49.823Z,2.70
2023-01-29T18:25:18.024Z,2.40
2023-01-29T18:27:47.536Z,3.10
2023-01-29T18:30:16.337Z,2.53
2023-01-29T18:32:44.260Z,3.17
2023-01-29T18:35:12.144Z,2.67
2023-01-29T18:37:40.028Z,2.67
2023-01-29T18:40:13.273Z,2.20
2023-01-29T18:42:41.589Z,2.20
2023-01-29T18:45:10.121Z,2.07
2023-01-29T18:47:37.970Z,2.63
2023-01-29T18:50:07.220Z,2.43
2023-01-29T18:52:35.300Z,2.50
2023-01-29T18:55:03.226Z,2.23
2023-01-29T18:58:27.849Z,2.67
2023-01-29T19:00:21.745Z,2.40
2023-01-29T19:02:50.735Z,2.93
2023-01-29T19:05:22.757Z,2.30
2023-01-29T19:07:50.896Z,2.90
2023-01-29T19:10:19.147Z,3.20
2023-01-29T19:12:48.550Z,3.30
2023-01-29T19:15:20.525Z,2.63
2023-01-29T19:17:48.376Z,2.50
2023-01-29T19:20:16.604Z,3.23
2023-01-29T19:22:44.625Z,2.70
2023-01-29T19:25:12.740Z,2.73
2023-01-29T19:27:40.745Z,2.73
2023-01-29T19:30:12.926Z,2.93
2023-01-29T19:32:40.821Z,2.70
2023-01-29T19:35:09.089Z,3.30
2023-01-29T19:37:36.917Z,2.97
2023-01-29T19:40:05.302Z,3.47
2023-01-29T19:42:33.158Z,2.73
2023-01-29T19:45:01.012Z,3.13
2023-01-29T19:47:30.234Z,2.70
2023-01-29T19:49:58.134Z,2.60
2023-01-29T19:52:51.070Z,2.70
2023-01-29T19:55:20.668Z,3.20
2023-01-29T19:57:48.744Z,2.97
2023-01-29T20:00:18.096Z,3.47
2023-01-29T20:02:47.481Z,3.50
2023-01-29T20:05:18.426Z,3.20
2023-01-29T20:07:46.657Z,3.43
2023-01-29T20:10:17.285Z,2.87
2023-01-29T20:12:45.846Z,3.10
2023-01-29T20:15:14.376Z,3.20
2023-01-29T20:17:43.048Z,3.30
2023-01-29T20:20:13.028Z,3.50
2023-01-29T20:22:40.906Z,3.20
2023-01-29T20:25:09.559Z,3.60
2023-01-29T20:27:37.436Z,3.37
2023-01-29T20:30:06.179Z,3.03
2023-01-29T20:32:34.052Z,3.73
2023-01-29T20:35:01.949Z,3.30
2023-01-29T20:37:31.167Z,2.73
2023-01-29T20:39:59.011Z,3.30
2023-01-29T20:42:26.890Z,2.87
2023-01-29T20:44:54.764Z,3.47
2023-01-29T20:47:22.631Z,3.13
2023-01-29T20:49:50.531Z,3.23
2023-01-29T20:52:18.479Z,4.10
2023-01-29T20:54:47.815Z,3.37
2023-01-29T20:57:15.753Z,4.00
2023-01-29T20:59:45.049Z,3.60
2023-01-29T21:02:12.996Z,3.53
2023-01-29T21:04:42.569Z,3.73
2023-01-29T21:07:12.076Z,3.50
2023-01-29T21:09:39.978Z,3.43
2023-01-29T21:12:09.337Z,3.37
2023-01-29T21:14:37.655Z,3.27
2023-01-29T21:17:06.040Z,3.90
2023-01-29T21:19:34.291Z,3.97
2023-01-29T21:22:02.186Z,4.13
2023-01-29T21:24:30.081Z,4.10
2023-01-29T21:26:57.984Z,3.80
2023-01-29T21:29:27.229Z,4.13
2023-01-29T21:31:55.172Z,3.97
2023-01-29T21:34:23.135Z,3.70
2023-01-29T21:36:51.004Z,3.63
2023-01-29T21:39:20.913Z,4.40
2023-01-29T21:42:07.683Z,3.90
2023-01-29T21:44:37.851Z,4.60
2023-01-29T21:47:12.303Z,3.60
2023-01-29T21:49:41.690Z,4.30
2023-01-29T21:52:11.126Z,4.10
2023-01-29T21:54:48.947Z,4.10
2023-01-29T21:57:17.623Z,3.50
2023-01-29T21:59:47.356Z,3.53
2023-01-29T22:02:21.555Z,4.23
2023-01-29T22:04:50.284Z,4.00
2023-01-29T22:07:18.134Z,4.40
2023-01-29T22:09:46.090Z,4.90
2023-01-29T22:12:14.091Z,3.70
2023-01-29T22:14:42.067Z,4.20
2023-01-29T22:17:11.363Z,3.80
2023-01-29T22:19:39.275Z,4.40
2023-01-29T22:22:07.806Z,4.10
2023-01-29T22:24:35.697Z,4.40
2023-01-29T22:27:03.605Z,4.37
2023-01-29T22:29:31.477Z,4.07
2023-01-29T22:31:59.475Z,5.00
2023-01-29T22:34:28.692Z,3.90
2023-01-29T22:36:56.598Z,4.50
2023-01-29T22:39:24.504Z,3.90
2023-01-29T22:41:52.493Z,4.97
2023-01-29T22:44:20.390Z,3.80
2023-01-29T22:46:48.880Z,3.87
2023-01-29T22:49:16.766Z,4.73
2023-01-29T22:51:46.081Z,3.90
2023-01-29T22:54:15.438Z,3.93
2023-01-29T22:56:43.429Z,4.47
2023-01-29T22:59:11.675Z,3.90
2023-01-29T23:01:39.620Z,4.47
2023-01-29T23:04:07.486Z,4.43
2023-01-29T23:06:35.357Z,4.13
2023-01-29T23:09:04.698Z,4.80
2023-01-29T23:11:32.659Z,4.37
2023-01-29T23:14:00.531Z,3.80
2023-01-29T23:16:29.450Z,4.13
2023-01-29T23:18:57.989Z,4.20
2023-01-29T23:21:27.219Z,4.37
2023-01-29T23:23:55.359Z,4.63
2023-01-29T23:26:42.213Z,4.23
2023-01-29T23:29:10.547Z,4.50
2023-01-29T23:31:38.640Z,4.07
2023-01-29T23:34:06.693Z,4.17
2023-01-29T23:36:34.603Z,4.63
2023-01-29T23:39:02.512Z,4.77
2023-01-29T23:41:31.705Z,4.17
2023-01-29T23:43:59.567Z,3.90
2023-01-29T23:46:27.592Z,3.60
2023-01-29T23:48:55.463Z,4.13
2023-01-29T23:51:23.342Z,4.10
2023-01-29T23:53:51.348Z,3.50
2023-01-29T23:56:19.788Z,4.40
2023-01-29T23:58:49.057Z,4.10
